CheckWX is a tool to help pilots better visualize weather data.  It is not intended as a substitute for an official pre-flight weather briefing.

07:11:49 UTC

EGGD METAR
Bristol International Airport
Bristol, United Kingdom
Current

22 mins ago

EGGD 050650Z AUTO 26021KT 9999 BKN011 OVC029 14/12 Q1010
Observed
Jul-5 @ 06:50 UTC
Wind
  • 260° at 21 KTS
Visibility
10,000+ meters
Flight Rules
MVFR
Cloud Levels
  • Broken at 1,100' AGL
  • Overcast at 2,900' AGL
Temperature
14°C / 57°F
Dewpoint
12°C / 54°F
Humidity
88%
Altimeter
29.82" Hg
Pressure
1009.92 hPa
Previous

52 mins ago

EGGD 050620Z AUTO 26020G30KT 9999 OVC012 14/12 Q1010
Observed
Jul-5 @ 06:20 UTC
Wind
  • 260° at 20 KTS
  • Gusting to 30 KTS
Visibility
10,000+ meters
Flight Rules
MVFR
Cloud Levels
  • Overcast at 1,200' AGL
Temperature
14°C / 57°F
Dewpoint
12°C / 54°F
Humidity
88%
Altimeter
29.82" Hg
Pressure
1009.92 hPa
Previous

1 hour ago

EGGD 050550Z AUTO 26020KT 9999 OVC012 14/12 Q1010
Observed
Jul-5 @ 05:50 UTC
Wind
  • 260° at 20 KTS
Visibility
10,000+ meters
Flight Rules
MVFR
Cloud Levels
  • Overcast at 1,200' AGL
Temperature
14°C / 57°F
Dewpoint
12°C / 54°F
Humidity
88%
Altimeter
29.82" Hg
Pressure
1009.92 hPa